createdAt,value
2022-08-17T00:02:26.755Z,15.93
2022-08-17T00:04:55.412Z,14.70
2022-08-17T00:07:22.948Z,15.30
2022-08-17T00:09:50.252Z,15.02
2022-08-17T00:12:43.611Z,15.57
2022-08-17T00:15:05.871Z,14.77
2022-08-17T00:17:35.768Z,13.80
2022-08-17T00:20:04.381Z,16.17
2022-08-17T00:22:36.091Z,17.70
2022-08-17T00:25:07.613Z,22.52
2022-08-17T00:27:35.567Z,16.35
2022-08-17T00:30:04.064Z,16.27
2022-08-17T00:33:14.033Z,17.38
2022-08-17T00:35:27.596Z,16.38
2022-08-17T00:37:55.169Z,18.73
2022-08-17T00:40:22.487Z,19.67
2022-08-17T00:42:53.385Z,17.45
2022-08-17T00:45:22.011Z,16.83
2022-08-17T00:47:49.561Z,19.77
2022-08-17T00:50:18.755Z,14.60
2022-08-17T00:52:52.421Z,17.67
2022-08-17T00:55:19.956Z,22.60
2022-08-17T00:57:53.375Z,14.88
2022-08-17T01:00:28.277Z,16.45
2022-08-17T01:03:02.406Z,17.10
2022-08-17T01:05:31.811Z,21.23
2022-08-17T01:08:00.667Z,19.10
2022-08-17T01:10:58.657Z,20.70
2022-08-17T01:13:21.422Z,20.65
2022-08-17T01:16:11.653Z,19.60
2022-08-17T01:18:39.203Z,17.00
2022-08-17T01:21:11.443Z,15.52
2022-08-17T01:23:38.545Z,16.33
2022-08-17T01:26:06.303Z,21.98
2022-08-17T01:28:55.142Z,20.42
2022-08-17T01:31:22.905Z,17.23
2022-08-17T01:33:50.015Z,16.38
2022-08-17T01:36:17.123Z,18.70
2022-08-17T01:38:44.279Z,20.05
2022-08-17T01:41:14.656Z,17.60
2022-08-17T01:44:04.309Z,17.02
2022-08-17T01:46:35.191Z,14.52
2022-08-17T01:49:06.541Z,17.25
2022-08-17T01:51:33.879Z,17.67
2022-08-17T01:54:05.320Z,17.23
2022-08-17T01:56:34.408Z,17.67
2022-08-17T01:59:01.660Z,15.63
2022-08-17T02:01:30.753Z,15.35
2022-08-17T02:04:00.986Z,19.20
2022-08-17T02:06:45.063Z,18.95
2022-08-17T02:09:22.333Z,16.73
2022-08-17T02:11:54.066Z,14.48
2022-08-17T02:14:21.859Z,18.83
2022-08-17T02:16:49.163Z,21.40
2022-08-17T02:19:17.245Z,19.85
2022-08-17T02:21:46.636Z,14.43
2022-08-17T02:25:00.984Z,15.90
2022-08-17T02:27:06.824Z,16.73
2022-08-17T02:29:34.194Z,16.63
2022-08-17T02:32:01.816Z,17.73
2022-08-17T02:34:29.104Z,21.98
2022-08-17T02:36:56.203Z,16.70
2022-08-17T02:39:23.391Z,16.50
2022-08-17T02:41:50.514Z,19.08
2022-08-17T02:44:39.614Z,20.67
2022-08-17T02:47:04.847Z,18.08
2022-08-17T02:49:31.950Z,16.70
2022-08-17T02:51:59.241Z,14.23
2022-08-17T02:54:40.076Z,16.50
2022-08-17T02:57:10.346Z,22.55
2022-08-17T02:59:38.702Z,16.95
2022-08-17T03:02:11.079Z,14.93
2022-08-17T03:04:38.672Z,17.33
2022-08-17T03:07:06.622Z,16.52
2022-08-17T03:09:33.767Z,15.13
2022-08-17T03:12:09.057Z,17.85
2022-08-17T03:17:16.934Z,15.50
2022-08-17T03:19:44.889Z,15.63
2022-08-17T03:22:35.342Z,16.88
2022-08-17T03:24:59.132Z,13.57
2022-08-17T03:27:26.565Z,15.10
2022-08-17T03:29:54.321Z,17.88
2022-08-17T03:32:21.505Z,15.75
2022-08-17T03:34:48.833Z,18.25
2022-08-17T03:37:15.948Z,18.13
2022-08-17T03:39:43.161Z,16.25
2022-08-17T03:42:14.335Z,17.95
2022-08-17T03:45:00.909Z,23.23
2022-08-17T03:47:46.972Z,24.30
2022-08-17T03:50:33.335Z,16.50
2022-08-17T03:53:21.071Z,18.58
2022-08-17T03:56:06.757Z,11.73
2022-08-17T04:01:01.286Z,17.88
2022-08-17T04:03:28.664Z,15.82
2022-08-17T04:05:55.858Z,16.65
2022-08-17T04:08:22.972Z,11.85
2022-08-17T04:10:50.073Z,16.80
2022-08-17T04:13:24.257Z,13.60
2022-08-17T04:15:53.721Z,14.77
2022-08-17T04:18:20.823Z,13.80
2022-08-17T04:20:47.921Z,14.93
2022-08-17T04:23:17.160Z,14.90
2022-08-17T04:25:48.290Z,14.38
2022-08-17T04:28:16.623Z,12.15
2022-08-17T04:30:45.086Z,13.88
2022-08-17T04:33:15.576Z,13.65
2022-08-17T04:35:45.637Z,15.40
2022-08-17T04:38:15.685Z,14.35
2022-08-17T04:41:02.114Z,13.48
2022-08-17T04:43:31.093Z,14.63
2022-08-17T04:46:00.975Z,12.98
2022-08-17T04:48:36.456Z,17.42
2022-08-17T04:51:15.155Z,13.80
2022-08-17T04:53:44.551Z,14.43
2022-08-17T04:56:18.142Z,12.68
2022-08-17T04:58:49.906Z,12.18
2022-08-17T05:01:23.319Z,15.70
2022-08-17T05:03:53.626Z,16.17
2022-08-17T05:06:20.903Z,13.73
2022-08-17T05:08:47.970Z,15.52
2022-08-17T05:11:15.078Z,12.40
2022-08-17T05:13:42.258Z,15.20
2022-08-17T05:16:09.450Z,14.90
2022-08-17T05:18:38.697Z,14.05
2022-08-17T05:21:06.867Z,15.20
2022-08-17T05:23:41.969Z,18.33
2022-08-17T05:26:25.524Z,11.45
2022-08-17T05:29:00.447Z,14.38
2022-08-17T05:31:30.821Z,14.43
2022-08-17T05:33:58.401Z,12.73
2022-08-17T05:36:43.722Z,11.95
2022-08-17T05:39:16.356Z,15.10
2022-08-17T05:41:46.845Z,14.80
2022-08-17T05:44:14.046Z,12.55
2022-08-17T05:46:43.765Z,14.43
2022-08-17T05:49:11.460Z,19.50
2022-08-17T05:51:41.377Z,12.40
2022-08-17T05:54:27.749Z,13.05
2022-08-17T05:57:25.455Z,13.30
2022-08-17T05:59:59.061Z,15.32
2022-08-17T06:02:47.896Z,14.60
2022-08-17T06:05:27.379Z,16.13
2022-08-17T06:08:03.815Z,17.50
2022-08-17T06:10:48.382Z,15.35
2022-08-17T06:13:36.575Z,16.23
2022-08-17T06:16:33.050Z,17.42
2022-08-17T06:19:13.443Z,19.55
2022-08-17T06:21:44.655Z,21.55
2022-08-17T06:24:36.518Z,20.45
2022-08-17T06:27:27.475Z,22.75
2022-08-17T06:30:09.197Z,19.13
2022-08-17T06:32:43.675Z,11.52
2022-08-17T06:35:13.422Z,15.15
2022-08-17T06:37:59.436Z,11.63
2022-08-17T06:40:47.734Z,13.68
2022-08-17T06:43:24.379Z,20.13
2022-08-17T06:46:04.146Z,10.93
2022-08-17T06:48:49.661Z,12.15
2022-08-17T06:54:22.791Z,12.35
2022-08-17T06:57:03.830Z,10.45
2022-08-17T06:59:56.226Z,15.40
2022-08-17T07:02:52.589Z,15.98
2022-08-17T07:05:34.133Z,15.45
2022-08-17T07:08:17.011Z,15.68
2022-08-17T07:10:51.134Z,14.75
2022-08-17T07:13:54.444Z,13.70
2022-08-17T07:16:36.368Z,10.77
2022-08-17T07:19:04.598Z,10.23
2022-08-17T07:21:42.037Z,10.90
2022-08-17T07:24:30.671Z,8.50
2022-08-17T07:27:13.016Z,7.35
2022-08-17T07:29:46.971Z,16.30
2022-08-17T07:32:18.653Z,10.38
2022-08-17T07:35:12.324Z,11.95
2022-08-17T07:37:56.106Z,13.25
2022-08-17T07:40:27.168Z,10.18
2022-08-17T07:43:22.298Z,12.02
2022-08-17T07:46:21.540Z,9.18
2022-08-17T07:48:54.746Z,8.65
2022-08-17T07:51:29.574Z,9.40
2022-08-17T07:56:54.128Z,7.80
2022-08-17T07:59:24.372Z,11.48
2022-08-17T08:02:07.925Z,10.88
2022-08-17T08:04:59.836Z,9.73
2022-08-17T08:07:34.634Z,8.23
2022-08-17T08:10:04.868Z,12.50
2022-08-17T08:12:38.770Z,7.65
2022-08-17T08:15:25.655Z,9.50
2022-08-17T08:17:55.872Z,8.10
2022-08-17T08:20:53.347Z,9.40
2022-08-17T08:23:41.728Z,8.50
2022-08-17T08:26:36.085Z,7.50
2022-08-17T08:29:09.332Z,7.40
2022-08-17T08:32:03.896Z,9.52
2022-08-17T08:35:00.635Z,5.37
2022-08-17T08:37:49.422Z,4.32
2022-08-17T08:40:31.919Z,7.47
2022-08-17T08:43:22.581Z,5.80
2022-08-17T08:45:57.748Z,9.40
2022-08-17T08:48:56.244Z,6.65
2022-08-17T08:51:31.532Z,8.27
2022-08-17T08:54:12.485Z,4.78
2022-08-17T08:57:19.802Z,7.63
2022-08-17T08:59:41.809Z,3.88
2022-08-17T09:02:29.758Z,7.70
2022-08-17T09:05:14.347Z,6.57
2022-08-17T09:08:05.293Z,11.70
2022-08-17T09:11:02.416Z,6.40
2022-08-17T09:13:54.403Z,6.22
2022-08-17T09:16:34.976Z,6.63
2022-08-17T09:19:12.189Z,6.18
2022-08-17T09:22:01.058Z,5.68
2022-08-17T09:24:35.975Z,7.00
2022-08-17T09:27:46.319Z,7.57
2022-08-17T09:30:14.697Z,8.32
2022-08-17T09:32:46.071Z,4.13
2022-08-17T09:35:19.916Z,3.95
2022-08-17T09:37:52.721Z,8.55
2022-08-17T09:40:38.035Z,4.32
2022-08-17T09:43:24.783Z,5.15
2022-08-17T09:45:57.138Z,6.75
2022-08-17T09:48:41.963Z,8.95
2022-08-17T09:51:25.102Z,4.65
2022-08-17T09:53:52.226Z,5.82
2022-08-17T09:56:41.062Z,4.43
2022-08-17T09:59:38.504Z,3.78
2022-08-17T10:02:26.524Z,10.55
2022-08-17T10:05:21.865Z,5.35
2022-08-17T10:08:09.328Z,6.35
2022-08-17T10:10:56.232Z,6.97
2022-08-17T10:13:53.128Z,4.35
2022-08-17T10:16:38.211Z,5.68
2022-08-17T10:22:00.966Z,4.18
2022-08-17T10:25:22.331Z,3.20
2022-08-17T10:27:55.430Z,3.00
2022-08-17T10:30:26.777Z,3.63
2022-08-17T10:33:01.425Z,4.03
2022-08-17T10:35:36.929Z,4.13
2022-08-17T10:38:37.774Z,5.13
2022-08-17T10:41:30.749Z,3.38
2022-08-17T10:44:38.307Z,8.43
2022-08-17T10:47:09.300Z,3.30
2022-08-17T10:49:54.021Z,5.10
2022-08-17T10:52:27.677Z,6.22
2022-08-17T10:54:56.718Z,10.40
2022-08-17T10:57:32.017Z,5.50
2022-08-17T11:00:15.846Z,7.20
2022-08-17T11:02:51.445Z,6.97
2022-08-17T11:05:18.717Z,6.82
2022-08-17T11:08:07.633Z,4.38
2022-08-17T11:11:12.996Z,6.47
2022-08-17T11:13:57.799Z,5.55
2022-08-17T11:16:50.730Z,4.85
2022-08-17T11:19:34.346Z,8.02
2022-08-17T11:22:19.681Z,8.35
2022-08-17T11:24:48.067Z,6.20
2022-08-17T11:27:30.119Z,6.95
2022-08-17T11:30:08.264Z,8.48
2022-08-17T11:32:54.418Z,4.35
2022-08-17T11:35:21.987Z,6.88
2022-08-17T11:38:16.374Z,4.50
2022-08-17T11:41:07.888Z,3.92
2022-08-17T11:44:26.399Z,3.88
2022-08-17T11:48:16.151Z,5.22
2022-08-17T11:51:07.341Z,3.45
2022-08-17T11:53:37.496Z,3.42
2022-08-17T11:56:04.625Z,4.78
2022-08-17T11:58:31.717Z,6.47
2022-08-17T12:01:00.765Z,3.72
2022-08-17T12:03:31.824Z,3.95
2022-08-17T12:06:20.353Z,3.95
2022-08-17T12:08:55.335Z,8.70
2022-08-17T12:11:55.159Z,5.05
2022-08-17T12:14:51.358Z,4.20
2022-08-17T12:17:39.635Z,8.23
2022-08-17T12:20:18.555Z,10.02
2022-08-17T12:23:01.098Z,6.97
2022-08-17T12:25:41.851Z,4.13
2022-08-17T12:28:34.160Z,4.10
2022-08-17T12:31:16.360Z,3.67
2022-08-17T12:33:45.462Z,3.78
2022-08-17T12:36:15.295Z,2.90
2022-08-17T12:38:59.493Z,3.42
2022-08-17T12:41:47.413Z,4.80
2022-08-17T12:44:21.405Z,6.72
2022-08-17T12:49:42.250Z,5.10
2022-08-17T12:52:16.077Z,8.63
2022-08-17T12:54:59.588Z,4.32
2022-08-17T12:57:32.757Z,5.60
2022-08-17T13:00:17.678Z,5.27
2022-08-17T13:02:49.216Z,4.60
2022-08-17T13:05:48.535Z,3.28
2022-08-17T13:08:19.099Z,5.20
2022-08-17T13:11:09.306Z,4.10
2022-08-17T13:13:39.435Z,6.93
2022-08-17T13:16:12.531Z,4.20
2022-08-17T13:18:53.025Z,4.25
2022-08-17T13:21:30.436Z,5.65
2022-08-17T13:24:03.822Z,5.40
2022-08-17T13:26:43.176Z,6.15
2022-08-17T13:29:26.321Z,4.93
2022-08-17T13:32:02.744Z,4.17
2022-08-17T13:38:51.095Z,3.88
2022-08-17T13:41:34.532Z,6.22
2022-08-17T13:44:02.175Z,6.68
2022-08-17T13:46:32.226Z,7.35
2022-08-17T13:49:00.873Z,5.30
2022-08-17T13:51:42.316Z,5.43
2022-08-17T13:54:30.055Z,5.88
2022-08-17T13:57:00.860Z,3.47
2022-08-17T13:59:48.218Z,5.25
2022-08-17T14:02:20.761Z,8.82
2022-08-17T14:04:48.123Z,4.80
2022-08-17T14:07:16.008Z,5.45
2022-08-17T14:09:57.744Z,8.85
2022-08-17T14:12:27.613Z,3.92
2022-08-17T14:14:56.379Z,5.80
2022-08-17T14:17:24.799Z,5.68
2022-08-17T14:19:52.429Z,6.35
2022-08-17T14:22:26.978Z,5.47
2022-08-17T14:24:54.145Z,4.63
2022-08-17T14:27:21.904Z,8.68
2022-08-17T14:29:49.370Z,4.10
2022-08-17T14:32:18.496Z,12.52
2022-08-17T14:34:46.575Z,4.75
2022-08-17T14:37:13.743Z,6.60
2022-08-17T14:39:40.997Z,5.25
2022-08-17T14:42:11.463Z,6.32
2022-08-17T14:44:39.453Z,6.85
2022-08-17T14:47:07.748Z,8.00
2022-08-17T14:49:34.857Z,5.30
2022-08-17T14:52:02.161Z,6.63
2022-08-17T14:54:33.869Z,6.75
2022-08-17T14:57:22.220Z,7.27
2022-08-17T14:59:53.204Z,5.13
2022-08-17T15:02:30.189Z,7.07
2022-08-17T15:05:03.394Z,4.55
2022-08-17T15:07:31.400Z,5.00
2022-08-17T15:10:01.512Z,7.13
2022-08-17T15:12:33.211Z,3.78
2022-08-17T15:15:06.195Z,6.80
2022-08-17T15:17:45.098Z,7.05
2022-08-17T15:20:16.324Z,8.70
2022-08-17T15:22:44.921Z,3.70
2022-08-17T15:25:13.098Z,7.40
2022-08-17T15:27:40.466Z,5.88
2022-08-17T15:30:09.399Z,5.18
2022-08-17T15:32:38.329Z,5.25
2022-08-17T15:35:07.810Z,7.32
2022-08-17T15:37:36.337Z,4.68
2022-08-17T15:40:05.414Z,4.63
2022-08-17T15:42:32.903Z,3.30
2022-08-17T15:45:06.024Z,4.22
2022-08-17T15:47:33.145Z,5.95
2022-08-17T15:50:00.641Z,4.53
2022-08-17T15:52:30.024Z,6.47
2022-08-17T15:54:59.374Z,3.42
2022-08-17T15:57:27.343Z,6.45
2022-08-17T15:59:58.712Z,6.80
2022-08-17T16:03:44.680Z,5.10
2022-08-17T16:05:22.300Z,6.05
2022-08-17T16:07:52.599Z,7.63
2022-08-17T16:10:20.949Z,8.40
2022-08-17T16:12:49.883Z,7.45
2022-08-17T16:15:17.942Z,7.55
2022-08-17T16:17:45.071Z,8.43
2022-08-17T16:20:20.421Z,8.77
2022-08-17T16:22:50.123Z,9.10
2022-08-17T16:25:47.184Z,9.15
2022-08-17T16:28:12.377Z,5.95
2022-08-17T16:30:39.800Z,7.45
2022-08-17T16:33:07.027Z,5.55
2022-08-17T16:35:34.160Z,4.88
2022-08-17T16:38:02.658Z,8.30
2022-08-17T16:40:31.232Z,4.60
2022-08-17T16:43:03.563Z,4.65
2022-08-17T16:45:36.366Z,6.20
2022-08-17T16:48:04.381Z,7.23
2022-08-17T16:50:32.270Z,6.97
2022-08-17T16:53:08.209Z,5.30
2022-08-17T16:55:35.722Z,5.65
2022-08-17T16:58:06.303Z,5.35
2022-08-17T17:00:33.754Z,6.68
2022-08-17T17:03:30.609Z,7.80
2022-08-17T17:06:08.014Z,4.60
2022-08-17T17:08:40.680Z,7.18
2022-08-17T17:11:21.386Z,8.43
2022-08-17T17:13:58.490Z,7.57
2022-08-17T17:16:28.741Z,10.15
2022-08-17T17:19:15.189Z,9.57
2022-08-17T17:21:53.233Z,13.65
2022-08-17T17:24:28.912Z,6.57
2022-08-17T17:27:19.519Z,5.65
2022-08-17T17:29:55.167Z,6.65
2022-08-17T17:32:38.532Z,5.28
2022-08-17T17:35:12.080Z,7.13
2022-08-17T17:37:40.188Z,7.05
2022-08-17T17:40:13.939Z,6.45
2022-08-17T17:42:42.206Z,11.63
2022-08-17T17:45:16.838Z,7.47
2022-08-17T17:47:44.563Z,13.15
2022-08-17T17:50:12.332Z,9.13
2022-08-17T17:52:52.466Z,9.35
2022-08-17T17:55:44.753Z,9.57
2022-08-17T17:58:32.062Z,9.07
2022-08-17T18:01:10.179Z,9.40
2022-08-17T18:04:11.204Z,8.23
2022-08-17T18:06:58.057Z,7.90
2022-08-17T18:10:01.652Z,10.98
2022-08-17T18:12:44.054Z,10.50
2022-08-17T18:15:25.522Z,6.57
2022-08-17T18:18:16.012Z,10.00
2022-08-17T18:20:55.790Z,9.48
2022-08-17T18:23:27.924Z,12.93
2022-08-17T18:25:56.602Z,10.32
2022-08-17T18:28:27.344Z,9.07
2022-08-17T18:31:06.781Z,12.40
2022-08-17T18:33:39.170Z,12.40
2022-08-17T18:37:16.013Z,11.07
2022-08-17T18:39:46.651Z,5.95
2022-08-17T18:42:28.834Z,13.10
2022-08-17T18:44:56.428Z,8.00
2022-08-17T18:47:28.283Z,8.60
2022-08-17T18:49:58.323Z,11.65
2022-08-17T18:52:33.788Z,8.32
2022-08-17T18:55:20.437Z,9.13
2022-08-17T18:57:55.171Z,6.07
2022-08-17T19:00:43.883Z,13.05
2022-08-17T19:03:20.194Z,9.52
2022-08-17T19:05:55.838Z,12.18
2022-08-17T19:08:29.084Z,14.13
2022-08-17T19:10:58.848Z,16.35
2022-08-17T19:13:32.416Z,11.95
2022-08-17T19:16:13.908Z,12.57
2022-08-17T19:19:04.707Z,11.55
2022-08-17T19:21:39.218Z,9.50
2022-08-17T19:24:21.905Z,15.50
2022-08-17T19:26:56.948Z,10.75
2022-08-17T19:29:36.901Z,9.70
2022-08-17T19:32:04.569Z,10.65
2022-08-17T19:34:34.568Z,10.25
2022-08-17T19:37:26.495Z,7.97
2022-08-17T19:40:51.008Z,11.88
2022-08-17T19:43:19.564Z,5.97
2022-08-17T19:46:13.294Z,10.55
2022-08-17T19:48:56.029Z,9.88
2022-08-17T19:51:58.760Z,9.13
2022-08-17T19:54:47.878Z,11.80
2022-08-17T19:57:20.399Z,9.55
2022-08-17T20:00:13.359Z,10.10
2022-08-17T20:02:46.496Z,12.95
2022-08-17T20:05:25.096Z,9.35
2022-08-17T20:08:04.052Z,7.57
2022-08-17T20:11:09.620Z,9.43
2022-08-17T20:13:41.882Z,9.10
2022-08-17T20:16:10.099Z,7.32
2022-08-17T20:18:52.388Z,7.85
2022-08-17T20:21:26.225Z,6.70
2022-08-17T20:24:01.829Z,7.60
2022-08-17T20:26:51.247Z,9.32
2022-08-17T20:29:39.856Z,8.90
2022-08-17T20:32:17.222Z,8.40
2022-08-17T20:34:46.121Z,6.90
2022-08-17T20:37:13.363Z,6.05
2022-08-17T20:39:46.265Z,7.78
2022-08-17T20:42:22.540Z,8.95
2022-08-17T20:44:52.709Z,8.20
2022-08-17T20:48:15.104Z,10.20
2022-08-17T20:50:37.880Z,9.35
2022-08-17T20:53:08.583Z,7.55
2022-08-17T20:55:35.809Z,9.43
2022-08-17T20:58:29.847Z,9.75
2022-08-17T21:00:59.130Z,12.98
2022-08-17T21:03:47.593Z,8.27
2022-08-17T21:06:18.903Z,13.98
2022-08-17T21:09:29.690Z,8.80
2022-08-17T21:12:04.289Z,6.90
2022-08-17T21:14:58.102Z,6.88
2022-08-17T21:17:34.238Z,9.27
2022-08-17T21:20:11.954Z,10.57
2022-08-17T21:22:51.462Z,12.10
2022-08-17T21:25:42.295Z,9.90
2022-08-17T21:28:15.473Z,12.82
2022-08-17T21:30:52.712Z,9.07
2022-08-17T21:33:25.179Z,9.77
2022-08-17T21:35:58.641Z,7.47
2022-08-17T21:38:37.612Z,7.22
2022-08-17T21:41:04.951Z,9.73
2022-08-17T21:43:35.295Z,12.23
2022-08-17T21:46:05.761Z,8.13
2022-08-17T21:48:42.296Z,6.57
2022-08-17T21:51:12.810Z,10.38
2022-08-17T21:53:42.847Z,9.95
2022-08-17T21:56:12.274Z,7.47
2022-08-17T21:58:45.396Z,9.82
2022-08-17T22:01:31.157Z,9.60
2022-08-17T22:03:59.638Z,13.13
2022-08-17T22:06:39.671Z,10.85
2022-08-17T22:09:14.648Z,8.93
2022-08-17T22:14:52.847Z,10.73
2022-08-17T22:17:36.416Z,7.45
2022-08-17T22:20:14.697Z,15.93
2022-08-17T22:23:12.645Z,13.18
2022-08-17T22:25:56.619Z,7.97
2022-08-17T22:28:49.099Z,9.98
2022-08-17T22:31:24.981Z,9.38
2022-08-17T22:33:59.775Z,8.68
2022-08-17T22:36:29.974Z,7.90
2022-08-17T22:39:04.072Z,8.05
2022-08-17T22:41:50.474Z,12.10
2022-08-17T22:44:37.539Z,15.13
2022-08-17T22:47:21.282Z,9.40
2022-08-17T22:49:53.880Z,9.25
2022-08-17T22:53:00.836Z,10.77
2022-08-17T22:58:36.908Z,9.38
2022-08-17T23:01:28.785Z,12.55
2022-08-17T23:04:01.759Z,24.17
2022-08-17T23:06:30.166Z,9.82
2022-08-17T23:08:58.106Z,9.25
2022-08-17T23:11:36.712Z,11.65
2022-08-17T23:14:15.919Z,8.15
2022-08-17T23:16:43.123Z,9.30
2022-08-17T23:19:11.525Z,10.50
2022-08-17T23:21:38.853Z,10.50
2022-08-17T23:24:08.830Z,7.95
2022-08-17T23:26:38.093Z,13.77
2022-08-17T23:29:06.702Z,9.55
2022-08-17T23:31:34.783Z,10.93
2022-08-17T23:34:03.331Z,13.00
2022-08-17T23:36:31.855Z,10.57
2022-08-17T23:38:59.080Z,10.30
2022-08-17T23:41:28.006Z,8.88
2022-08-17T23:43:55.381Z,11.07
2022-08-17T23:46:25.003Z,8.25
2022-08-17T23:48:53.498Z,10.40
2022-08-17T23:51:24.247Z,12.50
2022-08-17T23:53:56.099Z,10.95
2022-08-17T23:56:26.148Z,11.13
2022-08-17T23:58:55.081Z,15.63
